| time (UTC) | temp F | wind direction | speed MPH | gust MPH | rain 1hr in | rain 24hr in | rain mn in | humidity % | barometer mb |
| 20260906220540 | 98 | 158 | 6.0 | 9.0 | 0.00 | 0.00 | 0.00 | 34 | 1012.0 |
| 20260906220036 | 98 | 32 | 4.0 | 4.0 | 0.00 | 0.00 | 0.00 | 34 | 1012.1 |
| 20260906215535 | 99 | 104 | 4.0 | 9.0 | 0.00 | 0.00 | 0.00 | 34 | 1011.9 |
| 20260906215033 | 99 | 134 | 3.0 | 10.0 | 0.00 | 0.00 | 0.00 | 35 | 1012.0 |
| 20260906214532 | 98 | 143 | 6.0 | 7.0 | 0.00 | 0.00 | 0.00 | 35 | 1012.0 |
| 20260906214027 | 97 | 123 | 6.0 | 9.0 | 0.00 | 0.00 | 0.00 | 35 | 1012.2 |
| 20260906213526 | 98 | 172 | 6.0 | 9.0 | 0.00 | 0.00 | 0.00 | 35 | 1012.3 |
| 20260906213021 | 97 | 110 | 7.0 | 10.0 | 0.00 | 0.00 | 0.00 | 35 | 1012.2 |
| 20260906212508 | 98 | 152 | 8.0 | 11.0 | 0.00 | 0.00 | 0.00 | 35 | 1012.5 |
| 20260906212004 | 98 | 143 | 6.0 | 9.0 | 0.00 | 0.00 | 0.00 | 35 | 1012.5 |
| 20260906211504 | 98 | 151 | 6.0 | 7.0 | 0.00 | 0.00 | 0.00 | 35 | 1012.6 |
| 20260906211000 | 98 | 144 | 4.0 | 7.0 | 0.00 | 0.00 | 0.00 | 35 | 1012.7 |
| 20260906210454 | 97 | 128 | 8.0 | 9.0 | 0.00 | 0.00 | 0.00 | 35 | 1013.0 |
| 20260906205954 | 96 | 130 | 8.0 | 11.0 | 0.00 | 0.00 | 0.00 | 35 | 1012.9 |
| 20260906205450 | 98 | 81 | 3.0 | 8.0 | 0.00 | 0.00 | 0.00 | 35 | 1012.9 |
| 20260906204946 | 100 | 133 | 8.0 | 10.0 | 0.00 | 0.00 | 0.00 | 33 | 1012.7 |
| 20260906204445 | 100 | 148 | 2.0 | 7.0 | 0.00 | 0.00 | 0.00 | 34 | 1013.0 |
| 20260906203944 | 99 | 115 | 1.0 | 4.0 | 0.00 | 0.00 | 0.00 | 33 | 1013.0 |
| 20260906203440 | 98 | 105 | 1.0 | 6.0 | 0.00 | 0.00 | 0.00 | 35 | 1012.9 |
| 20260906202937 | 98 | 140 | 6.0 | 13.0 | 0.00 | 0.00 | 0.00 | 34 | 1013.1 |
| 20260906202436 | 98 | 175 | 6.0 | 10.0 | 0.00 | 0.00 | 0.00 | 35 | 1013.0 |
| 20260906201932 | 98 | 151 | 5.0 | 10.0 | 0.00 | 0.00 | 0.00 | 34 | 1013.2 |
| 20260906201426 | 97 | 161 | 8.0 | 9.0 | 0.00 | 0.00 | 0.00 | 34 | 1013.2 |
| 20260906200921 | 96 | 154 | 6.0 | 9.0 | 0.00 | 0.00 | 0.00 | 36 | 1013.2 |
| 20260906200418 | 98 | 132 | 3.0 | 7.0 | 0.00 | 0.00 | 0.00 | 34 | 1013.3 |
| 20260906195917 | 97 | 156 | 6.0 | 9.0 | 0.00 | 0.00 | 0.00 | 34 | 1013.3 |
| 20260906195414 | 97 | 142 | 2.0 | 8.0 | 0.00 | 0.00 | 0.00 | 35 | 1013.3 |
| 20260906194909 | 98 | 136 | 1.0 | 7.0 | 0.00 | 0.00 | 0.00 | 36 | 1013.5 |
| 20260906194405 | 97 | 77 | 2.0 | 10.0 | 0.00 | 0.00 | 0.00 | 35 | 1013.4 |
| 20260906193900 | 96 | 87 | 6.0 | 8.0 | 0.00 | 0.00 | 0.00 | 36 | 1013.3 |
| 20260906193355 | 96 | 148 | 3.0 | 11.0 | 0.00 | 0.00 | 0.00 | 35 | 1013.5 |
| 20260906192851 | 96 | 131 | 3.0 | 10.0 | 0.00 | 0.00 | 0.00 | 36 | 1013.6 |
| 20260906192350 | 97 | 153 | 2.0 | 3.0 | 0.00 | 0.00 | 0.00 | 35 | 1013.5 |
| 20260906191850 | 97 | 117 | 5.0 | 8.0 | 0.00 | 0.00 | 0.00 | 36 | 1013.5 |
| 20260906191344 | 98 | 133 | 5.0 | 7.0 | 0.00 | 0.00 | 0.00 | 34 | 1013.5 |
| 20260906190844 | 97 | 190 | 7.0 | 11.0 | 0.00 | 0.00 | 0.00 | 36 | 1014.0 |
| 20260906190344 | 96 | 128 | 6.0 | 9.0 | 0.00 | 0.00 | 0.00 | 36 | 1013.8 |
| 20260906185839 | 97 | 155 | 9.0 | 13.0 | 0.00 | 0.00 | 0.00 | 35 | 1013.8 |
| 20260906185337 | 97 | 149 | 8.0 | 13.0 | 0.00 | 0.00 | 0.00 | 36 | 1014.0 |
| 20260906184837 | 96 | 103 | 2.0 | 4.0 | 0.00 | 0.00 | 0.00 | 37 | 1013.7 |
| 20260906184338 | 96 | 156 | 4.0 | 11.0 | 0.00 | 0.00 | 0.00 | 37 | 1014.0 |
| 20260906183833 | 96 | 117 | 2.0 | 4.0 | 0.00 | 0.00 | 0.00 | 37 | 1014.0 |
| 20260906183330 | 96 | 104 | 2.0 | 6.0 | 0.00 | 0.00 | 0.00 | 37 | 1014.0 |
| 20260906182830 | 97 | 138 | 8.0 | 11.0 | 0.00 | 0.00 | 0.00 | 37 | 1014.0 |
| 20260906182326 | 96 | 175 | 5.0 | 7.0 | 0.00 | 0.00 | 0.00 | 36 | 1014.2 |
| 20260906181825 | 96 | 138 | 4.0 | 9.0 | 0.00 | 0.00 | 0.00 | 36 | 1014.5 |
| 20260906181322 | 96 | 132 | 4.0 | 10.0 | 0.00 | 0.00 | 0.00 | 37 | 1014.3 |
| 20260906180817 | 95 | 159 | 5.0 | 9.0 | 0.00 | 0.00 | 0.00 | 38 | 1014.3 |
| 20260906180312 | 96 | 126 | 4.0 | 9.0 | 0.00 | 0.00 | 0.00 | 38 | 1014.5 |
| 20260906175809 | 95 | 134 | 9.0 | 9.0 | 0.00 | 0.00 | 0.00 | 37 | 1014.5 |
| 20260906175306 | 95 | 161 | 7.0 | 10.0 | 0.00 | 0.00 | 0.00 | 38 | 1014.5 |
| 20260906174804 | 95 | 140 | 6.0 | 9.0 | 0.00 | 0.00 | 0.00 | 39 | 1014.7 |
| 20260906174303 | 95 | 159 | 6.0 | 10.0 | 0.00 | 0.00 | 0.00 | 39 | 1014.7 |
| 20260906173759 | 95 | 141 | 7.0 | 10.0 | 0.00 | 0.00 | 0.00 | 39 | 1014.9 |
| 20260906173254 | 96 | 116 | 6.0 | 13.0 | 0.00 | 0.00 | 0.00 | 40 | 1014.9 |
| 20260906172753 | 95 | 141 | 7.0 | 9.0 | 0.00 | 0.00 | 0.00 | 38 | 1015.0 |
| 20260906172249 | 93 | 121 | 5.0 | 9.0 | 0.00 | 0.00 | 0.00 | 43 | 1015.0 |
| 20260906171744 | 95 | 103 | 7.0 | 9.0 | 0.00 | 0.00 | 0.00 | 43 | 1015.3 |
| 20260906171239 | 95 | 144 | 3.0 | 11.0 | 0.00 | 0.00 | 0.00 | 42 | 1015.1 |
| 20260906170735 | 95 | 194 | 4.0 | 6.0 | 0.00 | 0.00 | 0.00 | 41 | 1015.4 |
| 20260906170230 | 94 | 140 | 4.0 | 4.0 | 0.00 | 0.00 | 0.00 | 43 | 1015.4 |
| 20260906165726 | 93 | 154 | 0.0 | 2.0 | 0.00 | 0.00 | 0.00 | 46 | 1015.4 |
| 20260906165221 | 95 | 154 | 5.0 | 11.0 | 0.00 | 0.00 | 0.00 | 43 | 1015.3 |
| 20260906164721 | 94 | 177 | 6.0 | 6.0 | 0.00 | 0.00 | 0.00 | 43 | 1015.4 |
| 20260906164216 | 93 | 163 | 2.0 | 7.0 | 0.00 | 0.00 | 0.00 | 45 | 1015.5 |
| 20260906163712 | 92 | 152 | 3.0 | 6.0 | 0.00 | 0.00 | 0.00 | 45 | 1015.7 |
| 20260906163208 | 93 | 104 | 6.0 | 9.0 | 0.00 | 0.00 | 0.00 | 44 | 1015.5 |
| 20260906162704 | 94 | 26 | 2.0 | 7.0 | 0.00 | 0.00 | 0.00 | 44 | 1015.3 |
| 20260906162204 | 93 | 59 | 4.0 | 8.0 | 0.00 | 0.00 | 0.00 | 43 | 1015.4 |
| 20260906161659 | 93 | 171 | 2.0 | 7.0 | 0.00 | 0.00 | 0.00 | 45 | 1015.7 |
| 20260906161158 | 93 | 60 | 7.0 | 10.0 | 0.00 | 0.00 | 0.00 | 45 | 1015.6 |
| 20260906160657 | 93 | 20 | 2.0 | 8.0 | 0.00 | 0.00 | 0.00 | 46 | 1015.7 |
| 20260906160156 | 92 | 128 | 3.0 | 8.0 | 0.00 | 0.00 | 0.00 | 47 | 1015.4 |
| 20260906155654 | 92 | 122 | 2.0 | 7.0 | 0.00 | 0.00 | 0.00 | 47 | 1015.5 |
| 20260906155149 | 91 | 57 | 4.0 | 6.0 | 0.00 | 0.00 | 0.00 | 47 | 1015.4 |
| 20260906154645 | 92 | 31 | 4.0 | 8.0 | 0.00 | 0.00 | 0.00 | 48 | 1015.4 |
| 20260906154144 | 92 | 75 | 3.0 | 6.0 | 0.00 | 0.00 | 0.00 | 49 | 1015.5 |
| 20260906153643 | 92 | 96 | 1.0 | 4.0 | 0.00 | 0.00 | 0.00 | 49 | 1015.4 |
| 20260906153138 | 91 | 108 | 1.0 | 3.0 | 0.00 | 0.00 | 0.00 | 51 | 1015.3 |
| 20260906152633 | 91 | 128 | 2.0 | 2.0 | 0.00 | 0.00 | 0.00 | 50 | 1015.6 |
| 20260906152133 | 91 | 144 | 2.0 | 3.0 | 0.00 | 0.00 | 0.00 | 52 | 1015.5 |
| 20260906151627 | 90 | 145 | 1.0 | 2.0 | 0.00 | 0.00 | 0.00 | 53 | 1015.5 |
| 20260906151124 | 90 | 172 | 3.0 | 4.0 | 0.00 | 0.00 | 0.00 | 53 | 1015.3 |
| 20260906150619 | 89 | 26 | 2.0 | 3.0 | 0.00 | 0.00 | 0.00 | 54 | 1015.4 |
| 20260906150114 | 89 | 75 | 2.0 | 3.0 | 0.00 | 0.00 | 0.00 | 54 | 1015.5 |
| 20260906145613 | 88 | 134 | 2.0 | 3.0 | 0.00 | 0.00 | 0.00 | 56 | 1015.5 |
| 20260906145107 | 88 | 134 | 1.0 | 2.0 | 0.00 | 0.00 | 0.00 | 55 | 1015.0 |
| 20260906144602 | 87 | 137 | 0.0 | 2.0 | 0.00 | 0.00 | 0.00 | 58 | 1015.1 |
| 20260906144058 | 87 | 74 | 1.0 | 3.0 | 0.00 | 0.00 | 0.00 | 58 | 1015.4 |
| 20260906143558 | 87 | 82 | 1.0 | 3.0 | 0.00 | 0.00 | 0.00 | 59 | 1015.0 |
| 20260906143055 | 86 | 124 | 1.0 | 2.0 | 0.00 | 0.00 | 0.00 | 61 | 1015.1 |
| 20260906142553 | 85 | 136 | 2.0 | 3.0 | 0.00 | 0.00 | 0.00 | 64 | 1015.1 |
| 20260906142049 | 84 | 147 | 2.0 | 3.0 | 0.00 | 0.00 | 0.00 | 66 | 1015.0 |
| 20260906141548 | 84 | 144 | 2.0 | 3.0 | 0.00 | 0.00 | 0.00 | 66 | 1015.1 |
| 20260906141043 | 84 | 148 | 2.0 | 4.0 | 0.00 | 0.00 | 0.00 | 66 | 1015.1 |
| 20260906140542 | 82 | 128 | 1.0 | 2.0 | 0.00 | 0.00 | 0.00 | 68 | 1015.4 |
| 20260906140037 | 82 | 161 | 3.0 | 4.0 | 0.00 | 0.00 | 0.00 | 68 | 1015.3 |
| 20260906135533 | 82 | 150 | 3.0 | 6.0 | 0.00 | 0.00 | 0.00 | 69 | 1015.1 |
| 20260906135030 | 81 | 151 | 2.0 | 3.0 | 0.00 | 0.00 | 0.00 | 70 | 1015.0 |
| 20260906134525 | 81 | 149 | 2.0 | 4.0 | 0.00 | 0.00 | 0.00 | 71 | 1015.3 |
| 20260906134026 | 81 | 143 | 3.0 | 4.0 | 0.00 | 0.00 | 0.00 | 71 | 1015.1 |
| 20260906133522 | 80 | 140 | 3.0 | 3.0 | 0.00 | 0.00 | 0.00 | 72 | 1015.0 |
| 20260906133017 | 80 | 132 | 1.0 | 3.0 | 0.00 | 0.00 | 0.00 | 74 | 1014.9 |
| 20260906132512 | 79 | 132 | 2.0 | 3.0 | 0.00 | 0.00 | 0.00 | 75 | 1014.9 |
| 20260906132007 | 78 | 143 | 4.0 | 4.0 | 0.00 | 0.00 | 0.00 | 76 | 1015.0 |
| 20260906131503 | 77 | 137 | 3.0 | 3.0 | 0.00 | 0.00 | 0.00 | 79 | 1014.8 |
| 20260906130958 | 77 | 132 | 2.0 | 2.0 | 0.00 | 0.00 | 0.00 | 80 | 1014.7 |
| 20260906130458 | 77 | 144 | 0.0 | 3.0 | 0.00 | 0.00 | 0.00 | 80 | 1014.8 |
| 20260906125958 | 76 | 124 | 3.0 | 3.0 | 0.00 | 0.00 | 0.00 | 81 | 1014.8 |
| 20260906125455 | 75 | 135 | 1.0 | 4.0 | 0.00 | 0.00 | 0.00 | 81 | 1014.6 |
| 20260906124955 | 75 | 134 | 3.0 | 3.0 | 0.00 | 0.00 | 0.00 | 82 | 1014.6 |
| 20260906124451 | 75 | 192 | 1.0 | 3.0 | 0.00 | 0.00 | 0.00 | 83 | 1014.6 |
| 20260906123950 | 74 | 192 | 2.0 | 2.0 | 0.00 | 0.00 | 0.00 | 84 | 1014.6 |
| 20260906123445 | 74 | 192 | 1.0 | 1.0 | 0.00 | 0.00 | 0.00 | 85 | 1014.8 |
| 20260906122944 | 73 | 192 | 0.0 | 0.0 | 0.00 | 0.00 | 0.00 | 85 | 1014.6 |
| 20260906122439 | 73 | 192 | 1.0 | 1.0 | 0.00 | 0.00 | 0.00 | 85 | 1014.5 |
| 20260906121936 | 73 | 192 | 0.0 | 0.0 | 0.00 | 0.00 | 0.00 | 85 | 1014.5 |
| 20260906121432 | 73 | 192 | 0.0 | 0.0 | 0.00 | 0.00 | 0.00 | 84 | 1014.1 |
| 20260906120929 | 73 | 192 | 1.0 | 1.0 | 0.00 | 0.00 | 0.00 | 85 | 1014.3 |
| 20260906120423 | 74 | 192 | 0.0 | 0.0 | 0.00 | 0.00 | 0.00 | 84 | 1014.0 |
| 20260906115919 | 74 | 192 | 0.0 | 0.0 | 0.00 | 0.00 | 0.00 | 84 | 1014.2 |
| 20260906115415 | 74 | 192 | 1.0 | 1.0 | 0.00 | 0.00 | 0.00 | 84 | 1014.3 |
| 20260906114914 | 74 | 192 | 0.0 | 0.0 | 0.00 | 0.00 | 0.00 | 83 | 1014.0 |
| 20260906114409 | 74 | 192 | 1.0 | 1.0 | 0.00 | 0.00 | 0.00 | 83 | 1014.0 |
| 20260906113905 | 74 | 192 | 1.0 | 1.0 | 0.00 | 0.00 | 0.00 | 84 | 1014.1 |
| 20260906113404 | 74 | 192 | 1.0 | 1.0 | 0.00 | 0.00 | 0.00 | 83 | 1014.1 |
| 20260906112900 | 74 | 192 | 0.0 | 0.0 | 0.00 | 0.00 | 0.00 | 83 | 1014.1 |
| 20260906112355 | 74 | 192 | 0.0 | 0.0 | 0.00 | 0.00 | 0.00 | 83 | 1014.1 |
| 20260906111855 | 74 | 192 | 0.0 | 0.0 | 0.00 | 0.00 | 0.00 | 82 | 1014.0 |
| 20260906111355 | 75 | 192 | 0.0 | 0.0 | 0.00 | 0.00 | 0.00 | 81 | 1013.7 |
| 20260906110850 | 75 | 192 | 0.0 | 0.0 | 0.00 | 0.00 | 0.00 | 81 | 1014.1 |
| 20260906110346 | 75 | 192 | 0.0 | 0.0 | 0.00 | 0.00 | 0.00 | 81 | 1014.1 |
| 20260906105845 | 75 | 192 | 0.0 | 0.0 | 0.00 | 0.00 | 0.00 | 80 | 1013.8 |
| 20260906105341 | 75 | 192 | 0.0 | 0.0 | 0.00 | 0.00 | 0.00 | 79 | 1013.7 |
| 20260906104836 | 75 | 192 | 2.0 | 2.0 | 0.00 | 0.00 | 0.00 | 79 | 1013.7 |
| 20260906104335 | 76 | 192 | 1.0 | 1.0 | 0.00 | 0.00 | 0.00 | 78 | 1013.7 |
| 20260906103833 | 75 | 192 | 1.0 | 1.0 | 0.00 | 0.00 | 0.00 | 79 | 1013.7 |
| 20260906103331 | 76 | 192 | 0.0 | 1.0 | 0.00 | 0.00 | 0.00 | 78 | 1013.5 |
| 20260906102828 | 76 | 192 | 0.0 | 0.0 | 0.00 | 0.00 | 0.00 | 78 | 1013.4 |
| 20260906102327 | 76 | 192 | 0.0 | 1.0 | 0.00 | 0.00 | 0.00 | 78 | 1013.6 |
| 20260906101822 | 76 | 192 | 0.0 | 1.0 | 0.00 | 0.00 | 0.00 | 78 | 1013.6 |
| 20260906101317 | 76 | 192 | 0.0 | 1.0 | 0.00 | 0.00 | 0.00 | 77 | 1013.7 |
| 20260906100813 | 76 | 192 | 1.0 | 1.0 | 0.00 | 0.00 | 0.00 | 78 | 1013.7 |
| 20260906100312 | 76 | 192 | 0.0 | 0.0 | 0.00 | 0.00 | 0.00 | 78 | 1013.6 |
| 20260906095807 | 76 | 192 | 0.0 | 0.0 | 0.00 | 0.00 | 0.00 | 77 | 1013.6 |
| 20260906095305 | 77 | 192 | 0.0 | 0.0 | 0.00 | 0.00 | 0.00 | 77 | 1013.7 |
| 20260906094801 | 77 | 192 | 0.0 | 1.0 | 0.00 | 0.00 | 0.00 | 76 | 1013.7 |
| 20260906094256 | 77 | 192 | 1.0 | 1.0 | 0.00 | 0.00 | 0.00 | 75 | 1013.4 |
| 20260906093753 | 77 | 192 | 2.0 | 1.0 | 0.00 | 0.00 | 0.00 | 76 | 1013.6 |
| 20260906093248 | 78 | 192 | 0.0 | 1.0 | 0.00 | 0.00 | 0.00 | 75 | 1013.4 |
| 20260906092744 | 78 | 192 | 1.0 | 1.0 | 0.00 | 0.00 | 0.00 | 75 | 1013.2 |
| 20260906092244 | 78 | 192 | 1.0 | 2.0 | 0.00 | 0.00 | 0.00 | 75 | 1013.1 |
| 20260906091739 | 78 | 192 | 1.0 | 3.0 | 0.00 | 0.00 | 0.00 | 74 | 1013.3 |
| 20260906091236 | 78 | 196 | 3.0 | 4.0 | 0.00 | 0.00 | 0.00 | 75 | 1013.4 |
| 20260906090732 | 78 | 196 | 4.0 | 6.0 | 0.00 | 0.00 | 0.00 | 75 | 1013.2 |
| 20260906090231 | 78 | 189 | 4.0 | 6.0 | 0.00 | 0.00 | 0.00 | 75 | 1013.1 |
| 20260906085730 | 78 | 196 | 4.0 | 4.0 | 0.00 | 0.00 | 0.00 | 76 | 1013.2 |
| 20260906085229 | 78 | 197 | 3.0 | 3.0 | 0.00 | 0.00 | 0.00 | 75 | 1013.1 |
| 20260906084725 | 78 | 197 | 3.0 | 3.0 | 0.00 | 0.00 | 0.00 | 75 | 1013.3 |
| 20260906084224 | 78 | 197 | 1.0 | 2.0 | 0.00 | 0.00 | 0.00 | 74 | 1013.4 |
| 20260906083719 | 78 | 195 | 2.0 | 3.0 | 0.00 | 0.00 | 0.00 | 75 | 1013.1 |
| 20260906083215 | 78 | 187 | 2.0 | 3.0 | 0.00 | 0.00 | 0.00 | 75 | 1013.1 |
| 20260906082710 | 78 | 188 | 2.0 | 3.0 | 0.00 | 0.00 | 0.00 | 75 | 1013.2 |
| 20260906082205 | 78 | 189 | 3.0 | 3.0 | 0.00 | 0.00 | 0.00 | 75 | 1013.1 |
| 20260906081701 | 78 | 181 | 0.0 | 2.0 | 0.00 | 0.00 | 0.00 | 75 | 1013.0 |
| 20260906081156 | 78 | 181 | 1.0 | 2.0 | 0.00 | 0.00 | 0.00 | 74 | 1013.1 |
| 20260906080653 | 78 | 180 | 1.0 | 1.0 | 0.00 | 0.00 | 0.00 | 74 | 1013.3 |
| 20260906080148 | 78 | 180 | 1.0 | 1.0 | 0.00 | 0.00 | 0.00 | 74 | 1013.3 |
| 20260906075648 | 79 | 180 | 1.0 | 1.0 | 0.00 | 0.00 | 0.00 | 73 | 1013.5 |
| 20260906075142 | 79 | 181 | 2.0 | 2.0 | 0.00 | 0.00 | 0.00 | 73 | 1013.6 |
| 20260906074638 | 79 | 176 | 1.0 | 2.0 | 0.00 | 0.00 | 0.00 | 73 | 1013.4 |
| 20260906074137 | 79 | 185 | 2.0 | 3.0 | 0.00 | 0.00 | 0.00 | 72 | 1013.5 |
| 20260906073632 | 79 | 185 | 2.0 | 2.0 | 0.00 | 0.00 | 0.00 | 73 | 1013.6 |
| 20260906073127 | 79 | 185 | 2.0 | 2.0 | 0.00 | 0.00 | 0.00 | 72 | 1013.4 |
| 20260906072622 | 79 | 186 | 2.0 | 4.0 | 0.00 | 0.00 | 0.00 | 72 | 1013.6 |
| 20260906072118 | 79 | 189 | 2.0 | 3.0 | 0.00 | 0.00 | 0.00 | 71 | 1013.4 |
| 20260906071614 | 80 | 187 | 2.0 | 4.0 | 0.00 | 0.00 | 0.00 | 71 | 1013.3 |
| 20260906071109 | 80 | 169 | 1.0 | 3.0 | 0.00 | 0.00 | 0.00 | 71 | 1013.1 |
| 20260906070606 | 80 | 175 | 2.0 | 6.0 | 0.00 | 0.00 | 0.00 | 70 | 1013.2 |
| 20260906070101 | 80 | 183 | 3.0 | 4.0 | 0.00 | 0.00 | 0.00 | 70 | 1013.3 |
| 20260906065600 | 80 | 174 | 2.0 | 2.0 | 0.00 | 0.00 | 0.00 | 70 | 1013.4 |
| 20260906065056 | 80 | 163 | 1.0 | 2.0 | 0.00 | 0.00 | 0.00 | 69 | 1013.7 |
| 20260906064552 | 80 | 155 | 2.0 | 2.0 | 0.00 | 0.00 | 0.00 | 69 | 1013.7 |
| 20260906064046 | 80 | 161 | 2.0 | 2.0 | 0.00 | 0.00 | 0.00 | 69 | 1013.7 |
| 20260906063541 | 80 | 177 | 2.0 | 2.0 | 0.00 | 0.00 | 0.00 | 68 | 1013.5 |
| 20260906063038 | 81 | 168 | 1.0 | 2.0 | 0.00 | 0.00 | 0.00 | 68 | 1013.7 |
| 20260906062533 | 81 | 169 | 2.0 | 3.0 | 0.00 | 0.00 | 0.00 | 67 | 1013.9 |
| 20260906062032 | 81 | 179 | 4.0 | 6.0 | 0.00 | 0.00 | 0.00 | 67 | 1013.7 |
| 20260906061529 | 81 | 188 | 4.0 | 4.0 | 0.00 | 0.00 | 0.00 | 67 | 1013.6 |
| 20260906061028 | 81 | 187 | 2.0 | 3.0 | 0.00 | 0.00 | 0.00 | 67 | 1013.8 |
| 20260906060525 | 81 | 183 | 2.0 | 3.0 | 0.00 | 0.00 | 0.00 | 66 | 1014.0 |
| 20260906060022 | 82 | 183 | 2.0 | 3.0 | 0.00 | 0.00 | 0.00 | 66 | 1013.9 |
| 20260906055517 | 82 | 175 | 2.0 | 2.0 | 0.00 | 0.00 | 0.00 | 66 | 1013.9 |
| 20260906055013 | 82 | 165 | 1.0 | 3.0 | 0.00 | 0.00 | 0.00 | 65 | 1013.9 |
| 20260906054512 | 82 | 165 | 2.0 | 4.0 | 0.00 | 0.00 | 0.00 | 64 | 1013.9 |
| 20260906054008 | 82 | 157 | 2.0 | 3.0 | 0.00 | 0.00 | 0.00 | 64 | 1013.8 |
| 20260906053504 | 82 | 166 | 1.0 | 2.0 | 0.00 | 0.00 | 0.00 | 64 | 1013.9 |
| 20260906052959 | 82 | 160 | 1.0 | 3.0 | 0.00 | 0.00 | 0.00 | 63 | 1014.0 |
| 20260906052455 | 82 | 149 | 3.0 | 4.0 | 0.00 | 0.00 | 0.00 | 63 | 1013.9 |
| 20260906051952 | 82 | 169 | 2.0 | 4.0 | 0.00 | 0.00 | 0.00 | 62 | 1014.0 |
| 20260906051447 | 83 | 163 | 2.0 | 3.0 | 0.00 | 0.00 | 0.00 | 62 | 1013.6 |
| 20260906050943 | 83 | 165 | 2.0 | 4.0 | 0.00 | 0.00 | 0.00 | 61 | 1013.9 |
| 20260906050442 | 83 | 151 | 3.0 | 4.0 | 0.00 | 0.00 | 0.00 | 61 | 1013.9 |
| 20260906045941 | 84 | 159 | 3.0 | 4.0 | 0.00 | 0.00 | 0.00 | 60 | 1013.9 |
| 20260906045440 | 84 | 168 | 2.0 | 4.0 | 0.00 | 0.00 | 0.00 | 60 | 1013.9 |
| 20260906044937 | 84 | 162 | 2.0 | 4.0 | 0.00 | 0.00 | 0.00 | 59 | 1013.8 |
| 20260906044432 | 84 | 169 | 3.0 | 7.0 | 0.00 | 0.00 | 0.00 | 59 | 1013.9 |
| 20260906043927 | 84 | 156 | 1.0 | 3.0 | 0.00 | 0.00 | 0.00 | 58 | 1013.9 |
| 20260906043423 | 85 | 164 | 2.0 | 3.0 | 0.00 | 0.00 | 0.00 | 57 | 1013.6 |
| 20260906042918 | 84 | 151 | 4.0 | 7.0 | 0.00 | 0.00 | 0.00 | 57 | 1013.8 |
| 20260906042417 | 85 | 161 | 2.0 | 4.0 | 0.00 | 0.00 | 0.00 | 56 | 1013.7 |
| 20260906041913 | 85 | 157 | 3.0 | 3.0 | 0.00 | 0.00 | 0.00 | 55 | 1013.7 |
| 20260906041409 | 85 | 150 | 3.0 | 6.0 | 0.00 | 0.00 | 0.00 | 55 | 1013.9 |
| 20260906040908 | 85 | 155 | 2.0 | 7.0 | 0.00 | 0.00 | 0.00 | 55 | 1013.8 |
| 20260906040404 | 85 | 156 | 4.0 | 7.0 | 0.00 | 0.00 | 0.00 | 55 | 1013.9 |
| 20260906035859 | 85 | 158 | 2.0 | 3.0 | 0.00 | 0.00 | 0.00 | 55 | 1013.7 |
| 20260906035354 | 85 | 130 | 4.0 | 4.0 | 0.00 | 0.00 | 0.00 | 54 | 1013.7 |
| 20260906034850 | 86 | 162 | 3.0 | 6.0 | 0.00 | 0.00 | 0.00 | 54 | 1013.8 |
| 20260906034350 | 86 | 142 | 4.0 | 6.0 | 0.00 | 0.00 | 0.00 | 54 | 1014.1 |
| 20260906033846 | 86 | 159 | 4.0 | 6.0 | 0.00 | 0.00 | 0.00 | 54 | 1013.6 |
| 20260906033345 | 86 | 154 | 3.0 | 3.0 | 0.00 | 0.00 | 0.00 | 53 | 1013.6 |
| 20260906032841 | 87 | 142 | 3.0 | 6.0 | 0.00 | 0.00 | 0.00 | 53 | 1013.6 |
| 20260906032337 | 87 | 149 | 4.0 | 8.0 | 0.00 | 0.00 | 0.00 | 51 | 1013.6 |
| 20260906031832 | 87 | 165 | 4.0 | 8.0 | 0.00 | 0.00 | 0.00 | 51 | 1013.5 |
| 20260906031327 | 87 | 165 | 4.0 | 6.0 | 0.00 | 0.00 | 0.00 | 50 | 1013.5 |
| 20260906030827 | 87 | 159 | 4.0 | 8.0 | 0.00 | 0.00 | 0.00 | 50 | 1013.4 |
| 20260906030322 | 88 | 166 | 3.0 | 4.0 | 0.00 | 0.00 | 0.00 | 49 | 1013.5 |
| 20260906025817 | 88 | 145 | 4.0 | 6.0 | 0.00 | 0.00 | 0.00 | 49 | 1013.7 |
| 20260906025311 | 88 | 151 | 3.0 | 7.0 | 0.00 | 0.00 | 0.00 | 49 | 1013.3 |
| 20260906024810 | 88 | 151 | 5.0 | 6.0 | 0.00 | 0.00 | 0.00 | 48 | 1013.4 |
| 20260906024309 | 88 | 150 | 3.0 | 4.0 | 0.00 | 0.00 | 0.00 | 48 | 1013.4 |
| 20260906023805 | 88 | 156 | 2.0 | 3.0 | 0.00 | 0.00 | 0.00 | 47 | 1013.2 |
| 20260906023300 | 88 | 160 | 1.0 | 6.0 | 0.00 | 0.00 | 0.00 | 46 | 1013.2 |
| 20260906022755 | 88 | 152 | 2.0 | 4.0 | 0.00 | 0.00 | 0.00 | 46 | 1013.2 |
| 20260906022251 | 88 | 153 | 2.0 | 3.0 | 0.00 | 0.00 | 0.00 | 45 | 1013.0 |
| 20260906021747 | 88 | 155 | 2.0 | 2.0 | 0.00 | 0.00 | 0.00 | 45 | 1013.2 |
| 20260906021246 | 88 | 155 | 3.0 | 4.0 | 0.00 | 0.00 | 0.00 | 45 | 1013.0 |
| 20260906020741 | 87 | 144 | 2.0 | 6.0 | 0.00 | 0.00 | 0.00 | 46 | 1012.8 |
| 20260906020240 | 87 | 137 | 0.0 | 0.0 | 0.00 | 0.00 | 0.00 | 45 | 1012.6 |
| 20260906015735 | 87 | 137 | 0.0 | 0.0 | 0.00 | 0.00 | 0.00 | 45 | 1012.7 |
| 20260906015233 | 87 | 137 | 0.0 | 0.0 | 0.00 | 0.00 | 0.00 | 45 | 1012.3 |
| 20260906014728 | 88 | 137 | 0.0 | 1.0 | 0.00 | 0.00 | 0.00 | 45 | 1012.3 |
| 20260906014224 | 88 | 137 | 1.0 | 1.0 | 0.00 | 0.00 | 0.00 | 44 | 1012.2 |
| 20260906013720 | 88 | 137 | 2.0 | 2.0 | 0.00 | 0.00 | 0.00 | 45 | 1012.5 |
| 20260906013220 | 88 | 137 | 1.0 | 1.0 | 0.00 | 0.00 | 0.00 | 44 | 1012.5 |
| 20260906012715 | 89 | 137 | 1.0 | 1.0 | 0.00 | 0.00 | 0.00 | 43 | 1012.1 |
| 20260906012215 | 89 | 137 | 0.0 | 1.0 | 0.00 | 0.00 | 0.00 | 43 | 1011.9 |
| 20260906011711 | 90 | 137 | 1.0 | 2.0 | 0.00 | 0.00 | 0.00 | 42 | 1012.1 |
| 20260906011205 | 90 | 138 | 1.0 | 2.0 | 0.00 | 0.00 | 0.00 | 41 | 1012.1 |
| 20260906010701 | 91 | 140 | 2.0 | 3.0 | 0.00 | 0.00 | 0.00 | 41 | 1011.9 |
| 20260906010157 | 91 | 142 | 2.0 | 2.0 | 0.00 | 0.00 | 0.00 | 40 | 1012.0 |
| 20260906005657 | 91 | 137 | 2.0 | 3.0 | 0.00 | 0.00 | 0.00 | 39 | 1011.7 |
| 20260906005156 | 92 | 142 | 3.0 | 4.0 | 0.00 | 0.00 | 0.00 | 39 | 1012.1 |
| 20260906004655 | 92 | 141 | 2.0 | 7.0 | 0.00 | 0.00 | 0.00 | 38 | 1012.1 |
| 20260906004150 | 93 | 140 | 3.0 | 4.0 | 0.00 | 0.00 | 0.00 | 38 | 1012.1 |
| 20260906003646 | 93 | 153 | 3.0 | 6.0 | 0.00 | 0.00 | 0.00 | 37 | 1011.9 |
| 20260906003141 | 93 | 148 | 3.0 | 7.0 | 0.00 | 0.00 | 0.00 | 37 | 1011.9 |
| 20260906002636 | 94 | 162 | 3.0 | 6.0 | 0.00 | 0.00 | 0.00 | 37 | 1011.9 |
| 20260906002131 | 94 | 148 | 3.0 | 7.0 | 0.00 | 0.00 | 0.00 | 36 | 1011.7 |
| 20260906001626 | 94 | 146 | 4.0 | 6.0 | 0.00 | 0.00 | 0.00 | 36 | 1012.0 |
| 20260906001126 | 95 | 150 | 3.0 | 8.0 | 0.00 | 0.00 | 0.00 | 36 | 1011.8 |
| 20260906000622 | 95 | 135 | 2.0 | 4.0 | 0.00 | 0.00 | 0.00 | 36 | 1011.8 |
| 20260906000117 | 95 | 148 | 2.0 | 6.0 | 0.00 | 0.00 | 0.00 | 35 | 1011.6 |
| 20260905235616 | 95 | 158 | 5.0 | 7.0 | 0.00 | 0.00 | 0.00 | 35 | 1011.7 |
| 20260905235111 | 95 | 165 | 3.0 | 6.0 | 0.00 | 0.00 | 0.00 | 35 | 1011.5 |
| 20260905234612 | 96 | 145 | 2.0 | 8.0 | 0.00 | 0.00 | 0.00 | 34 | 1011.7 |
| 20260905234108 | 96 | 156 | 4.0 | 4.0 | 0.00 | 0.00 | 0.00 | 33 | 1011.7 |
| 20260905233608 | 96 | 147 | 2.0 | 7.0 | 0.00 | 0.00 | 0.00 | 34 | 1011.7 |
| 20260905233102 | 96 | 96 | 2.0 | 4.0 | 0.00 | 0.00 | 0.00 | 33 | 1011.5 |
| 20260905232557 | 96 | 136 | 1.0 | 3.0 | 0.00 | 0.00 | 0.00 | 34 | 1011.5 |
| 20260905232053 | 96 | 128 | 4.0 | 4.0 | 0.00 | 0.00 | 0.00 | 33 | 1011.6 |
| 20260905231548 | 97 | 162 | 5.0 | 7.0 | 0.00 | 0.00 | 0.00 | 32 | 1011.5 |
| 20260905231044 | 97 | 150 | 3.0 | 8.0 | 0.00 | 0.00 | 0.00 | 32 | 1011.7 |
| 20260905230544 | 98 | 145 | 1.0 | 3.0 | 0.00 | 0.00 | 0.00 | 32 | 1011.3 |
| 20260905230043 | 97 | 60 | 2.0 | 3.0 | 0.00 | 0.00 | 0.00 | 32 | 1011.2 |
| 20260905225537 | 97 | 118 | 2.0 | 7.0 | 0.00 | 0.00 | 0.00 | 33 | 1011.7 |
| 20260905225033 | 98 | 79 | 2.0 | 7.0 | 0.00 | 0.00 | 0.00 | 32 | 1011.5 |
| 20260905224532 | 98 | 123 | 1.0 | 4.0 | 0.00 | 0.00 | 0.00 | 32 | 1011.5 |
| 20260905224032 | 97 | 136 | 2.0 | 3.0 | 0.00 | 0.00 | 0.00 | 32 | 1011.4 |
| 20260905223529 | 97 | 136 | 4.0 | 7.0 | 0.00 | 0.00 | 0.00 | 32 | 1011.6 |
| 20260905223025 | 98 | 160 | 4.0 | 8.0 | 0.00 | 0.00 | 0.00 | 32 | 1011.6 |
| 20260905222525 | 98 | 192 | 6.0 | 7.0 | 0.00 | 0.00 | 0.00 | 32 | 1011.6 |
| 20260905222020 | 98 | 141 | 1.0 | 8.0 | 0.00 | 0.00 | 0.00 | 32 | 1011.6 |
| 20260905221516 | 97 | 200 | 4.0 | 6.0 | 0.00 | 0.00 | 0.00 | 33 | 1011.6 |
| 20260905221012 | 99 | 154 | 2.0 | 7.0 | 0.00 | 0.00 | 0.00 | 32 | 1011.8 |